sensor_id;sensor_type;location;lat;lon;timestamp;temperature;humidity
3226;DHT22;1625;49.884;8.666;2022-08-19T00:01:10;22.10;99.90
3226;DHT22;1625;49.884;8.666;2022-08-19T00:03:35;22.10;99.90
3226;DHT22;1625;49.884;8.666;2022-08-19T00:06:01;22.10;99.90
3226;DHT22;1625;49.884;8.666;2022-08-19T00:08:26;22.10;99.90
3226;DHT22;1625;49.884;8.666;2022-08-19T00:10:52;22.10;99.90
3226;DHT22;1625;49.884;8.666;2022-08-19T00:13:17;22.10;99.90
3226;DHT22;1625;49.884;8.666;2022-08-19T00:15:44;22.10;99.90
3226;DHT22;1625;49.884;8.666;2022-08-19T00:18:10;22.10;99.90
3226;DHT22;1625;49.884;8.666;2022-08-19T00:20:36;22.00;99.90
3226;DHT22;1625;49.884;8.666;2022-08-19T00:23:03;22.00;99.90
3226;DHT22;1625;49.884;8.666;2022-08-19T00:25:29;22.00;99.90
3226;DHT22;1625;49.884;8.666;2022-08-19T00:27:55;22.00;99.90
3226;DHT22;1625;49.884;8.666;2022-08-19T00:30:21;22.00;99.90
3226;DHT22;1625;49.884;8.666;2022-08-19T00:32:46;22.00;99.90
3226;DHT22;1625;49.884;8.666;2022-08-19T00:35:12;22.00;99.90
3226;DHT22;1625;49.884;8.666;2022-08-19T00:37:38;22.00;99.90
3226;DHT22;1625;49.884;8.666;2022-08-19T00:40:05;22.00;99.90
3226;DHT22;1625;49.884;8.666;2022-08-19T00:42:31;22.00;99.90
3226;DHT22;1625;49.884;8.666;2022-08-19T00:44:58;22.00;99.90
3226;DHT22;1625;49.884;8.666;2022-08-19T00:47:23;22.00;99.90
3226;DHT22;1625;49.884;8.666;2022-08-19T00:49:56;22.00;99.90
3226;DHT22;1625;49.884;8.666;2022-08-19T00:52:33;22.00;99.90
3226;DHT22;1625;49.884;8.666;2022-08-19T00:55:00;22.00;99.90
3226;DHT22;1625;49.884;8.666;2022-08-19T00:57:35;22.00;99.90
3226;DHT22;1625;49.884;8.666;2022-08-19T01:00:06;21.90;99.90
3226;DHT22;1625;49.884;8.666;2022-08-19T01:02:32;21.90;99.90
3226;DHT22;1625;49.884;8.666;2022-08-19T01:05:01;21.90;99.90
3226;DHT22;1625;49.884;8.666;2022-08-19T01:07:27;21.90;99.90
3226;DHT22;1625;49.884;8.666;2022-08-19T01:09:53;21.90;99.90
3226;DHT22;1625;49.884;8.666;2022-08-19T01:12:19;21.90;99.90
3226;DHT22;1625;49.884;8.666;2022-08-19T01:14:45;21.90;99.90
3226;DHT22;1625;49.884;8.666;2022-08-19T01:17:12;22.00;99.90
3226;DHT22;1625;49.884;8.666;2022-08-19T01:19:40;22.00;99.90
3226;DHT22;1625;49.884;8.666;2022-08-19T01:22:15;22.00;99.90
3226;DHT22;1625;49.884;8.666;2022-08-19T01:24:42;21.90;99.90
3226;DHT22;1625;49.884;8.666;2022-08-19T01:27:08;21.90;99.90
3226;DHT22;1625;49.884;8.666;2022-08-19T01:29:38;21.90;99.90
3226;DHT22;1625;49.884;8.666;2022-08-19T01:32:04;21.90;99.90
3226;DHT22;1625;49.884;8.666;2022-08-19T01:34:29;21.90;99.90
3226;DHT22;1625;49.884;8.666;2022-08-19T01:36:55;21.90;99.90
3226;DHT22;1625;49.884;8.666;2022-08-19T01:39:23;21.90;99.90
3226;DHT22;1625;49.884;8.666;2022-08-19T01:41:50;21.90;99.90
3226;DHT22;1625;49.884;8.666;2022-08-19T01:44:16;21.90;99.90
3226;DHT22;1625;49.884;8.666;2022-08-19T01:46:44;21.90;99.90
3226;DHT22;1625;49.884;8.666;2022-08-19T01:49:09;21.90;99.90
3226;DHT22;1625;49.884;8.666;2022-08-19T01:51:35;21.90;99.90
3226;DHT22;1625;49.884;8.666;2022-08-19T01:54:02;21.90;99.90
3226;DHT22;1625;49.884;8.666;2022-08-19T01:56:27;21.90;99.90
3226;DHT22;1625;49.884;8.666;2022-08-19T01:58:57;21.90;99.90
3226;DHT22;1625;49.884;8.666;2022-08-19T02:01:24;21.80;99.90
3226;DHT22;1625;49.884;8.666;2022-08-19T02:03:49;21.90;99.90
3226;DHT22;1625;49.884;8.666;2022-08-19T02:06:15;21.90;99.90
3226;DHT22;1625;49.884;8.666;2022-08-19T02:08:42;21.90;99.90
3226;DHT22;1625;49.884;8.666;2022-08-19T02:11:19;21.90;99.90
3226;DHT22;1625;49.884;8.666;2022-08-19T02:13:45;21.80;99.90
3226;DHT22;1625;49.884;8.666;2022-08-19T02:16:11;21.80;99.90
3226;DHT22;1625;49.884;8.666;2022-08-19T02:18:36;21.80;99.90
3226;DHT22;1625;49.884;8.666;2022-08-19T02:21:02;21.80;99.90
3226;DHT22;1625;49.884;8.666;2022-08-19T02:23:28;21.80;99.90
3226;DHT22;1625;49.884;8.666;2022-08-19T02:25:53;21.80;99.90
3226;DHT22;1625;49.884;8.666;2022-08-19T02:28:19;21.80;99.90
3226;DHT22;1625;49.884;8.666;2022-08-19T02:30:46;21.80;99.90
3226;DHT22;1625;49.884;8.666;2022-08-19T02:33:11;21.70;99.90
3226;DHT22;1625;49.884;8.666;2022-08-19T02:35:41;21.70;99.90
3226;DHT22;1625;49.884;8.666;2022-08-19T02:38:07;21.70;99.90
3226;DHT22;1625;49.884;8.666;2022-08-19T02:40:54;21.70;99.90
3226;DHT22;1625;49.884;8.666;2022-08-19T02:43:21;21.70;99.90
3226;DHT22;1625;49.884;8.666;2022-08-19T02:45:48;21.60;99.90
3226;DHT22;1625;49.884;8.666;2022-08-19T02:48:18;21.70;99.90
3226;DHT22;1625;49.884;8.666;2022-08-19T02:50:45;21.60;99.90
3226;DHT22;1625;49.884;8.666;2022-08-19T02:53:11;21.60;99.90
3226;DHT22;1625;49.884;8.666;2022-08-19T02:55:44;21.60;99.90
3226;DHT22;1625;49.884;8.666;2022-08-19T02:58:10;21.50;99.90
3226;DHT22;1625;49.884;8.666;2022-08-19T03:00:35;21.50;99.90
3226;DHT22;1625;49.884;8.666;2022-08-19T03:03:01;21.50;99.90
3226;DHT22;1625;49.884;8.666;2022-08-19T03:05:26;21.50;99.90
3226;DHT22;1625;49.884;8.666;2022-08-19T03:07:52;21.50;99.90
3226;DHT22;1625;49.884;8.666;2022-08-19T03:10:18;21.50;99.90
3226;DHT22;1625;49.884;8.666;2022-08-19T03:12:44;21.50;99.90
3226;DHT22;1625;49.884;8.666;2022-08-19T03:15:11;21.50;99.90
3226;DHT22;1625;49.884;8.666;2022-08-19T03:17:36;21.40;99.90
3226;DHT22;1625;49.884;8.666;2022-08-19T03:20:03;21.50;99.90
3226;DHT22;1625;49.884;8.666;2022-08-19T03:22:29;21.40;99.90
3226;DHT22;1625;49.884;8.666;2022-08-19T03:24:55;21.50;99.90
3226;DHT22;1625;49.884;8.666;2022-08-19T03:27:21;21.40;99.90
3226;DHT22;1625;49.884;8.666;2022-08-19T03:29:46;21.40;99.90
3226;DHT22;1625;49.884;8.666;2022-08-19T03:32:13;21.40;99.90
3226;DHT22;1625;49.884;8.666;2022-08-19T03:34:38;21.50;99.90
3226;DHT22;1625;49.884;8.666;2022-08-19T03:37:09;21.40;99.90
3226;DHT22;1625;49.884;8.666;2022-08-19T03:39:36;21.40;99.90
3226;DHT22;1625;49.884;8.666;2022-08-19T03:42:03;21.30;99.90
3226;DHT22;1625;49.884;8.666;2022-08-19T03:44:30;21.40;99.90
3226;DHT22;1625;49.884;8.666;2022-08-19T03:46:59;21.40;99.90
3226;DHT22;1625;49.884;8.666;2022-08-19T03:49:27;21.40;99.90
3226;DHT22;1625;49.884;8.666;2022-08-19T03:51:55;21.40;99.90
3226;DHT22;1625;49.884;8.666;2022-08-19T03:54:23;21.40;99.90
3226;DHT22;1625;49.884;8.666;2022-08-19T03:56:50;21.40;99.90
3226;DHT22;1625;49.884;8.666;2022-08-19T03:59:20;21.40;99.90
3226;DHT22;1625;49.884;8.666;2022-08-19T04:01:47;21.40;99.90
3226;DHT22;1625;49.884;8.666;2022-08-19T04:04:13;21.40;99.90
3226;DHT22;1625;49.884;8.666;2022-08-19T04:06:39;21.40;99.90
3226;DHT22;1625;49.884;8.666;2022-08-19T04:09:07;21.40;99.90
3226;DHT22;1625;49.884;8.666;2022-08-19T04:11:40;21.40;99.90
3226;DHT22;1625;49.884;8.666;2022-08-19T04:14:08;21.40;99.90
3226;DHT22;1625;49.884;8.666;2022-08-19T04:16:34;21.30;99.90
3226;DHT22;1625;49.884;8.666;2022-08-19T04:19:02;21.40;99.90
3226;DHT22;1625;49.884;8.666;2022-08-19T04:21:28;21.30;99.90
3226;DHT22;1625;49.884;8.666;2022-08-19T04:23:56;21.40;99.90
3226;DHT22;1625;49.884;8.666;2022-08-19T04:26:26;21.30;99.90
3226;DHT22;1625;49.884;8.666;2022-08-19T04:28:52;21.30;99.90
3226;DHT22;1625;49.884;8.666;2022-08-19T04:31:24;21.30;99.90
3226;DHT22;1625;49.884;8.666;2022-08-19T04:33:54;21.30;99.90
3226;DHT22;1625;49.884;8.666;2022-08-19T04:36:28;21.20;99.90
3226;DHT22;1625;49.884;8.666;2022-08-19T04:38:56;21.20;99.90
3226;DHT22;1625;49.884;8.666;2022-08-19T04:41:22;21.20;99.90
3226;DHT22;1625;49.884;8.666;2022-08-19T04:44:06;21.20;99.90
3226;DHT22;1625;49.884;8.666;2022-08-19T04:46:32;21.20;99.90
3226;DHT22;1625;49.884;8.666;2022-08-19T04:48:59;21.20;99.90
3226;DHT22;1625;49.884;8.666;2022-08-19T04:51:25;21.20;99.90
3226;DHT22;1625;49.884;8.666;2022-08-19T04:53:51;21.20;99.90
3226;DHT22;1625;49.884;8.666;2022-08-19T04:56:19;21.20;99.90
3226;DHT22;1625;49.884;8.666;2022-08-19T04:58:46;21.20;99.90
3226;DHT22;1625;49.884;8.666;2022-08-19T05:01:14;21.20;99.90
3226;DHT22;1625;49.884;8.666;2022-08-19T05:03:42;21.20;99.90
3226;DHT22;1625;49.884;8.666;2022-08-19T05:06:11;21.30;99.90
3226;DHT22;1625;49.884;8.666;2022-08-19T05:08:38;21.30;99.90
3226;DHT22;1625;49.884;8.666;2022-08-19T05:11:22;21.40;99.90
3226;DHT22;1625;49.884;8.666;2022-08-19T05:13:48;21.40;99.90
3226;DHT22;1625;49.884;8.666;2022-08-19T05:16:19;21.40;99.90
3226;DHT22;1625;49.884;8.666;2022-08-19T05:18:45;21.40;99.90
3226;DHT22;1625;49.884;8.666;2022-08-19T05:21:30;21.40;99.90
3226;DHT22;1625;49.884;8.666;2022-08-19T05:24:15;21.40;99.90
3226;DHT22;1625;49.884;8.666;2022-08-19T05:26:46;21.30;99.90
3226;DHT22;1625;49.884;8.666;2022-08-19T05:29:14;21.40;99.90
3226;DHT22;1625;49.884;8.666;2022-08-19T05:31:41;21.40;99.90
3226;DHT22;1625;49.884;8.666;2022-08-19T05:34:07;21.40;99.90
3226;DHT22;1625;49.884;8.666;2022-08-19T05:36:37;21.40;99.90
3226;DHT22;1625;49.884;8.666;2022-08-19T05:39:05;21.40;99.90
3226;DHT22;1625;49.884;8.666;2022-08-19T05:41:31;21.40;99.90
3226;DHT22;1625;49.884;8.666;2022-08-19T05:43:58;21.50;99.90
3226;DHT22;1625;49.884;8.666;2022-08-19T05:46:26;21.50;99.90
3226;DHT22;1625;49.884;8.666;2022-08-19T05:48:51;21.50;99.90
3226;DHT22;1625;49.884;8.666;2022-08-19T05:51:17;21.50;99.90
3226;DHT22;1625;49.884;8.666;2022-08-19T05:53:43;21.50;99.90
3226;DHT22;1625;49.884;8.666;2022-08-19T05:56:14;21.50;99.90
3226;DHT22;1625;49.884;8.666;2022-08-19T05:58:42;21.50;99.90
3226;DHT22;1625;49.884;8.666;2022-08-19T06:01:15;21.50;99.90
3226;DHT22;1625;49.884;8.666;2022-08-19T06:03:41;21.50;99.90
3226;DHT22;1625;49.884;8.666;2022-08-19T06:06:08;21.50;99.90
3226;DHT22;1625;49.884;8.666;2022-08-19T06:08:35;21.50;99.90
3226;DHT22;1625;49.884;8.666;2022-08-19T06:13:49;21.50;99.90
3226;DHT22;1625;49.884;8.666;2022-08-19T06:16:19;21.50;99.90
3226;DHT22;1625;49.884;8.666;2022-08-19T06:18:48;21.50;99.90
3226;DHT22;1625;49.884;8.666;2022-08-19T06:21:15;21.50;99.90
3226;DHT22;1625;49.884;8.666;2022-08-19T06:23:41;21.50;99.90
3226;DHT22;1625;49.884;8.666;2022-08-19T06:26:11;21.50;99.90
3226;DHT22;1625;49.884;8.666;2022-08-19T06:28:37;21.60;99.90
3226;DHT22;1625;49.884;8.666;2022-08-19T06:31:13;21.60;99.90
3226;DHT22;1625;49.884;8.666;2022-08-19T06:33:39;21.60;99.90
3226;DHT22;1625;49.884;8.666;2022-08-19T06:36:05;21.60;99.90
3226;DHT22;1625;49.884;8.666;2022-08-19T06:38:33;21.70;99.90
3226;DHT22;1625;49.884;8.666;2022-08-19T06:41:03;21.70;99.90
3226;DHT22;1625;49.884;8.666;2022-08-19T06:43:30;21.80;99.90
3226;DHT22;1625;49.884;8.666;2022-08-19T06:45:55;21.80;99.90
3226;DHT22;1625;49.884;8.666;2022-08-19T06:48:22;21.90;99.90
3226;DHT22;1625;49.884;8.666;2022-08-19T06:50:47;21.90;99.90
3226;DHT22;1625;49.884;8.666;2022-08-19T06:53:17;21.90;99.90
3226;DHT22;1625;49.884;8.666;2022-08-19T06:55:45;22.00;99.90
3226;DHT22;1625;49.884;8.666;2022-08-19T06:58:11;22.00;99.90
3226;DHT22;1625;49.884;8.666;2022-08-19T07:00:39;22.10;99.90
3226;DHT22;1625;49.884;8.666;2022-08-19T07:03:05;22.10;99.90
3226;DHT22;1625;49.884;8.666;2022-08-19T07:05:31;22.20;99.90
3226;DHT22;1625;49.884;8.666;2022-08-19T07:07:56;22.20;99.90
3226;DHT22;1625;49.884;8.666;2022-08-19T07:10:22;22.20;99.90
3226;DHT22;1625;49.884;8.666;2022-08-19T07:12:48;22.20;99.90
3226;DHT22;1625;49.884;8.666;2022-08-19T07:15:15;22.20;99.90
3226;DHT22;1625;49.884;8.666;2022-08-19T07:17:41;22.30;99.90
3226;DHT22;1625;49.884;8.666;2022-08-19T07:20:09;22.40;99.90
3226;DHT22;1625;49.884;8.666;2022-08-19T07:22:39;22.40;99.90
3226;DHT22;1625;49.884;8.666;2022-08-19T07:25:07;22.40;99.90
3226;DHT22;1625;49.884;8.666;2022-08-19T07:27:33;22.50;99.90
3226;DHT22;1625;49.884;8.666;2022-08-19T07:30:00;22.50;99.90
3226;DHT22;1625;49.884;8.666;2022-08-19T07:32:25;22.60;99.90
3226;DHT22;1625;49.884;8.666;2022-08-19T07:34:56;22.60;99.90
3226;DHT22;1625;49.884;8.666;2022-08-19T07:37:21;22.70;99.90
3226;DHT22;1625;49.884;8.666;2022-08-19T07:39:47;22.70;99.90
3226;DHT22;1625;49.884;8.666;2022-08-19T07:42:18;22.80;99.90
3226;DHT22;1625;49.884;8.666;2022-08-19T07:44:46;22.80;99.90
3226;DHT22;1625;49.884;8.666;2022-08-19T07:47:12;22.80;99.90
3226;DHT22;1625;49.884;8.666;2022-08-19T07:49:38;22.90;99.90
3226;DHT22;1625;49.884;8.666;2022-08-19T07:52:07;23.00;99.90
3226;DHT22;1625;49.884;8.666;2022-08-19T07:54:39;23.10;99.90
3226;DHT22;1625;49.884;8.666;2022-08-19T07:57:06;23.20;99.90
3226;DHT22;1625;49.884;8.666;2022-08-19T07:59:32;23.20;99.90
3226;DHT22;1625;49.884;8.666;2022-08-19T08:01:58;23.30;99.90
3226;DHT22;1625;49.884;8.666;2022-08-19T08:04:26;23.40;99.90
3226;DHT22;1625;49.884;8.666;2022-08-19T08:07:16;23.40;99.90
3226;DHT22;1625;49.884;8.666;2022-08-19T08:10:06;23.50;99.90
3226;DHT22;1625;49.884;8.666;2022-08-19T08:12:41;23.60;99.90
3226;DHT22;1625;49.884;8.666;2022-08-19T08:15:12;23.60;99.90
3226;DHT22;1625;49.884;8.666;2022-08-19T08:17:42;23.60;99.90
3226;DHT22;1625;49.884;8.666;2022-08-19T08:20:09;23.60;99.90
3226;DHT22;1625;49.884;8.666;2022-08-19T08:22:35;23.70;99.90
3226;DHT22;1625;49.884;8.666;2022-08-19T08:25:21;23.80;99.90
3226;DHT22;1625;49.884;8.666;2022-08-19T08:27:49;23.70;99.90
3226;DHT22;1625;49.884;8.666;2022-08-19T08:30:21;23.80;99.90
3226;DHT22;1625;49.884;8.666;2022-08-19T08:32:48;23.80;99.90
3226;DHT22;1625;49.884;8.666;2022-08-19T08:35:16;23.80;99.90
3226;DHT22;1625;49.884;8.666;2022-08-19T08:37:43;23.90;99.90
3226;DHT22;1625;49.884;8.666;2022-08-19T08:43:30;24.00;99.90
3226;DHT22;1625;49.884;8.666;2022-08-19T08:46:11;24.10;99.90
3226;DHT22;1625;49.884;8.666;2022-08-19T08:48:56;24.10;99.90
3226;DHT22;1625;49.884;8.666;2022-08-19T08:51:27;24.10;99.90
3226;DHT22;1625;49.884;8.666;2022-08-19T08:53:57;24.30;99.90
3226;DHT22;1625;49.884;8.666;2022-08-19T08:56:23;24.40;99.90
3226;DHT22;1625;49.884;8.666;2022-08-19T08:59:04;24.40;99.90
3226;DHT22;1625;49.884;8.666;2022-08-19T09:01:34;24.40;99.90
3226;DHT22;1625;49.884;8.666;2022-08-19T09:03:59;24.40;99.90
3226;DHT22;1625;49.884;8.666;2022-08-19T09:06:40;24.40;99.90
3226;DHT22;1625;49.884;8.666;2022-08-19T09:09:34;24.60;99.90
3226;DHT22;1625;49.884;8.666;2022-08-19T09:12:25;24.70;99.90
3226;DHT22;1625;49.884;8.666;2022-08-19T09:15:09;24.90;99.90
3226;DHT22;1625;49.884;8.666;2022-08-19T09:17:36;25.00;99.90
3226;DHT22;1625;49.884;8.666;2022-08-19T09:22:40;25.20;99.90
3226;DHT22;1625;49.884;8.666;2022-08-19T09:25:08;25.20;99.90
3226;DHT22;1625;49.884;8.666;2022-08-19T09:27:36;25.10;99.90
3226;DHT22;1625;49.884;8.666;2022-08-19T09:30:04;25.00;99.90
3226;DHT22;1625;49.884;8.666;2022-08-19T09:32:30;24.90;99.90
3226;DHT22;1625;49.884;8.666;2022-08-19T09:34:56;24.90;99.90
3226;DHT22;1625;49.884;8.666;2022-08-19T09:37:24;24.90;99.90
3226;DHT22;1625;49.884;8.666;2022-08-19T09:39:50;24.90;99.90
3226;DHT22;1625;49.884;8.666;2022-08-19T09:42:15;24.90;99.90
3226;DHT22;1625;49.884;8.666;2022-08-19T09:44:42;24.90;99.90
3226;DHT22;1625;49.884;8.666;2022-08-19T09:47:10;24.90;99.90
3226;DHT22;1625;49.884;8.666;2022-08-19T09:49:37;24.90;99.90
3226;DHT22;1625;49.884;8.666;2022-08-19T09:52:04;25.00;99.90
3226;DHT22;1625;49.884;8.666;2022-08-19T09:54:29;25.10;99.90
3226;DHT22;1625;49.884;8.666;2022-08-19T09:56:58;25.10;99.90
3226;DHT22;1625;49.884;8.666;2022-08-19T09:59:25;25.10;99.90
3226;DHT22;1625;49.884;8.666;2022-08-19T10:01:51;25.10;99.90
3226;DHT22;1625;49.884;8.666;2022-08-19T10:04:17;25.20;99.90
3226;DHT22;1625;49.884;8.666;2022-08-19T10:06:42;25.40;99.90
3226;DHT22;1625;49.884;8.666;2022-08-19T10:09:10;25.50;99.90
3226;DHT22;1625;49.884;8.666;2022-08-19T10:11:36;25.50;99.90
3226;DHT22;1625;49.884;8.666;2022-08-19T10:14:04;25.70;99.90
3226;DHT22;1625;49.884;8.666;2022-08-19T10:16:33;25.80;99.90
3226;DHT22;1625;49.884;8.666;2022-08-19T10:19:00;25.80;99.90
3226;DHT22;1625;49.884;8.666;2022-08-19T10:21:32;25.80;99.90
3226;DHT22;1625;49.884;8.666;2022-08-19T10:23:59;25.70;99.90
3226;DHT22;1625;49.884;8.666;2022-08-19T10:26:28;25.70;99.90
3226;DHT22;1625;49.884;8.666;2022-08-19T10:28:55;25.50;99.90
3226;DHT22;1625;49.884;8.666;2022-08-19T10:31:23;25.30;99.90
3226;DHT22;1625;49.884;8.666;2022-08-19T10:33:51;25.40;99.90
3226;DHT22;1625;49.884;8.666;2022-08-19T10:36:24;25.50;99.90
3226;DHT22;1625;49.884;8.666;2022-08-19T10:38:52;25.60;99.90
3226;DHT22;1625;49.884;8.666;2022-08-19T10:41:21;25.60;99.90
3226;DHT22;1625;49.884;8.666;2022-08-19T10:43:51;25.60;99.90
3226;DHT22;1625;49.884;8.666;2022-08-19T10:46:17;25.60;99.90
3226;DHT22;1625;49.884;8.666;2022-08-19T10:48:43;25.80;99.90
3226;DHT22;1625;49.884;8.666;2022-08-19T10:51:10;26.00;99.90
3226;DHT22;1625;49.884;8.666;2022-08-19T10:53:55;26.00;99.90
3226;DHT22;1625;49.884;8.666;2022-08-19T10:56:21;26.10;99.90
3226;DHT22;1625;49.884;8.666;2022-08-19T10:59:06;26.10;99.90
3226;DHT22;1625;49.884;8.666;2022-08-19T11:01:33;26.20;99.90
3226;DHT22;1625;49.884;8.666;2022-08-19T11:04:03;26.20;99.90
3226;DHT22;1625;49.884;8.666;2022-08-19T11:06:30;26.10;99.90
3226;DHT22;1625;49.884;8.666;2022-08-19T11:08:56;26.00;99.90
3226;DHT22;1625;49.884;8.666;2022-08-19T11:11:23;26.10;99.90
3226;DHT22;1625;49.884;8.666;2022-08-19T11:13:49;26.10;99.90
3226;DHT22;1625;49.884;8.666;2022-08-19T11:16:20;26.20;99.90
3226;DHT22;1625;49.884;8.666;2022-08-19T11:18:56;26.30;99.90
3226;DHT22;1625;49.884;8.666;2022-08-19T11:21:28;26.30;99.90
3226;DHT22;1625;49.884;8.666;2022-08-19T11:23:56;26.30;99.90
3226;DHT22;1625;49.884;8.666;2022-08-19T11:26:23;26.30;99.90
3226;DHT22;1625;49.884;8.666;2022-08-19T11:28:49;26.40;99.90
3226;DHT22;1625;49.884;8.666;2022-08-19T11:31:21;26.30;99.90
3226;DHT22;1625;49.884;8.666;2022-08-19T11:33:47;26.40;99.90
3226;DHT22;1625;49.884;8.666;2022-08-19T11:36:16;26.60;99.90
3226;DHT22;1625;49.884;8.666;2022-08-19T11:38:47;26.60;99.90
3226;DHT22;1625;49.884;8.666;2022-08-19T11:41:15;26.50;99.90
3226;DHT22;1625;49.884;8.666;2022-08-19T11:43:41;26.50;99.90
3226;DHT22;1625;49.884;8.666;2022-08-19T11:46:10;26.50;99.90
3226;DHT22;1625;49.884;8.666;2022-08-19T11:48:37;26.60;99.90
3226;DHT22;1625;49.884;8.666;2022-08-19T11:51:12;26.70;99.90
3226;DHT22;1625;49.884;8.666;2022-08-19T11:53:38;26.80;99.90
3226;DHT22;1625;49.884;8.666;2022-08-19T11:56:04;27.00;99.90
3226;DHT22;1625;49.884;8.666;2022-08-19T11:58:31;27.10;99.90
3226;DHT22;1625;49.884;8.666;2022-08-19T12:00:57;27.00;99.90
3226;DHT22;1625;49.884;8.666;2022-08-19T12:03:23;27.10;99.90
3226;DHT22;1625;49.884;8.666;2022-08-19T12:05:49;27.30;99.90
3226;DHT22;1625;49.884;8.666;2022-08-19T12:08:16;27.20;99.90
3226;DHT22;1625;49.884;8.666;2022-08-19T12:10:42;27.20;99.90
3226;DHT22;1625;49.884;8.666;2022-08-19T12:13:09;27.20;99.90
3226;DHT22;1625;49.884;8.666;2022-08-19T12:15:37;27.30;99.90
3226;DHT22;1625;49.884;8.666;2022-08-19T12:18:03;27.40;99.90
3226;DHT22;1625;49.884;8.666;2022-08-19T12:20:29;27.40;99.90
3226;DHT22;1625;49.884;8.666;2022-08-19T12:22:54;27.50;99.90
3226;DHT22;1625;49.884;8.666;2022-08-19T12:25:20;27.50;99.90
3226;DHT22;1625;49.884;8.666;2022-08-19T12:27:46;27.60;99.90
3226;DHT22;1625;49.884;8.666;2022-08-19T12:30:13;27.70;99.90
3226;DHT22;1625;49.884;8.666;2022-08-19T12:32:39;27.70;99.90
3226;DHT22;1625;49.884;8.666;2022-08-19T12:35:06;27.80;99.90
3226;DHT22;1625;49.884;8.666;2022-08-19T12:37:31;27.80;99.90
3226;DHT22;1625;49.884;8.666;2022-08-19T12:39:58;27.80;99.90
3226;DHT22;1625;49.884;8.666;2022-08-19T12:42:24;27.80;99.90
3226;DHT22;1625;49.884;8.666;2022-08-19T12:44:50;28.00;99.90
3226;DHT22;1625;49.884;8.666;2022-08-19T12:47:17;28.10;99.90
3226;DHT22;1625;49.884;8.666;2022-08-19T12:49:43;28.10;99.90
3226;DHT22;1625;49.884;8.666;2022-08-19T12:52:09;28.10;99.90
3226;DHT22;1625;49.884;8.666;2022-08-19T12:54:37;28.00;99.90
3226;DHT22;1625;49.884;8.666;2022-08-19T12:57:07;28.00;99.90
3226;DHT22;1625;49.884;8.666;2022-08-19T12:59:34;28.10;99.90
3226;DHT22;1625;49.884;8.666;2022-08-19T13:02:00;28.30;99.90
3226;DHT22;1625;49.884;8.666;2022-08-19T13:04:25;28.20;99.90
3226;DHT22;1625;49.884;8.666;2022-08-19T13:06:51;28.20;99.80
3226;DHT22;1625;49.884;8.666;2022-08-19T13:09:16;28.20;99.90
3226;DHT22;1625;49.884;8.666;2022-08-19T13:11:42;28.30;99.50
3226;DHT22;1625;49.884;8.666;2022-08-19T13:14:09;28.40;98.90
3226;DHT22;1625;49.884;8.666;2022-08-19T13:16:36;28.50;99.00
3226;DHT22;1625;49.884;8.666;2022-08-19T13:19:03;28.70;96.90
3226;DHT22;1625;49.884;8.666;2022-08-19T13:21:30;28.80;96.60
3226;DHT22;1625;49.884;8.666;2022-08-19T13:23:56;28.90;96.10
3226;DHT22;1625;49.884;8.666;2022-08-19T13:26:22;29.20;96.70
3226;DHT22;1625;49.884;8.666;2022-08-19T13:28:48;29.20;96.80
3226;DHT22;1625;49.884;8.666;2022-08-19T13:31:34;29.00;96.40
3226;DHT22;1625;49.884;8.666;2022-08-19T13:34:26;28.70;96.20
3226;DHT22;1625;49.884;8.666;2022-08-19T13:36:53;28.50;96.30
3226;DHT22;1625;49.884;8.666;2022-08-19T13:39:18;28.50;95.30
3226;DHT22;1625;49.884;8.666;2022-08-19T13:41:45;28.50;93.50
3226;DHT22;1625;49.884;8.666;2022-08-19T13:44:15;28.50;94.50
3226;DHT22;1625;49.884;8.666;2022-08-19T14:07:21;29.00;93.60
3226;DHT22;1625;49.884;8.666;2022-08-19T14:20:34;29.30;93.40
3226;DHT22;1625;49.884;8.666;2022-08-19T14:23:21;29.70;92.70
3226;DHT22;1625;49.884;8.666;2022-08-19T14:25:48;29.20;93.10
3226;DHT22;1625;49.884;8.666;2022-08-19T14:28:25;29.30;92.50
3226;DHT22;1625;49.884;8.666;2022-08-19T14:30:51;29.30;93.00
3226;DHT22;1625;49.884;8.666;2022-08-19T14:33:18;29.40;91.60
3226;DHT22;1625;49.884;8.666;2022-08-19T14:35:43;29.60;91.20
3226;DHT22;1625;49.884;8.666;2022-08-19T14:38:28;29.80;90.70
3226;DHT22;1625;49.884;8.666;2022-08-19T14:41:20;30.40;90.20
3226;DHT22;1625;49.884;8.666;2022-08-19T14:43:50;30.70;88.00
3226;DHT22;1625;49.884;8.666;2022-08-19T14:49:54;30.20;86.70
3226;DHT22;1625;49.884;8.666;2022-08-19T15:23:54;34.50;73.90
3226;DHT22;1625;49.884;8.666;2022-08-19T15:26:58;35.10;72.60
3226;DHT22;1625;49.884;8.666;2022-08-19T15:29:24;34.70;71.80
3226;DHT22;1625;49.884;8.666;2022-08-19T15:31:51;34.30;72.00
3226;DHT22;1625;49.884;8.666;2022-08-19T15:34:16;34.00;73.40
3226;DHT22;1625;49.884;8.666;2022-08-19T15:36:42;33.60;72.90
3226;DHT22;1625;49.884;8.666;2022-08-19T15:39:08;32.90;72.30
3226;DHT22;1625;49.884;8.666;2022-08-19T15:41:35;32.40;73.00
3226;DHT22;1625;49.884;8.666;2022-08-19T15:44:03;32.10;73.30
3226;DHT22;1625;49.884;8.666;2022-08-19T15:46:32;31.60;73.00
3226;DHT22;1625;49.884;8.666;2022-08-19T15:48:58;31.20;73.10
3226;DHT22;1625;49.884;8.666;2022-08-19T15:51:25;31.00;73.30
3226;DHT22;1625;49.884;8.666;2022-08-19T15:53:51;31.00;73.70
3226;DHT22;1625;49.884;8.666;2022-08-19T15:56:17;30.90;73.50
3226;DHT22;1625;49.884;8.666;2022-08-19T15:58:43;31.00;74.80
3226;DHT22;1625;49.884;8.666;2022-08-19T16:01:27;31.40;74.80
3226;DHT22;1625;49.884;8.666;2022-08-19T16:04:12;30.50;74.80
3226;DHT22;1625;49.884;8.666;2022-08-19T16:06:58;30.50;76.60
3226;DHT22;1625;49.884;8.666;2022-08-19T16:09:27;30.50;76.30
3226;DHT22;1625;49.884;8.666;2022-08-19T16:11:56;30.40;73.60
3226;DHT22;1625;49.884;8.666;2022-08-19T16:14:22;30.20;73.40
3226;DHT22;1625;49.884;8.666;2022-08-19T16:16:47;30.30;74.60
3226;DHT22;1625;49.884;8.666;2022-08-19T16:19:16;30.00;74.30
3226;DHT22;1625;49.884;8.666;2022-08-19T16:21:45;29.80;73.50
3226;DHT22;1625;49.884;8.666;2022-08-19T16:24:12;29.70;74.50
3226;DHT22;1625;49.884;8.666;2022-08-19T16:26:39;29.60;75.50
3226;DHT22;1625;49.884;8.666;2022-08-19T16:29:05;29.60;76.20
3226;DHT22;1625;49.884;8.666;2022-08-19T16:31:33;29.50;77.00
3226;DHT22;1625;49.884;8.666;2022-08-19T16:33:59;29.60;77.90
3226;DHT22;1625;49.884;8.666;2022-08-19T16:36:24;29.50;75.60
3226;DHT22;1625;49.884;8.666;2022-08-19T16:38:51;29.50;75.90
3226;DHT22;1625;49.884;8.666;2022-08-19T16:41:18;29.30;76.60
3226;DHT22;1625;49.884;8.666;2022-08-19T16:43:44;29.50;78.00
3226;DHT22;1625;49.884;8.666;2022-08-19T16:46:10;29.40;77.50
3226;DHT22;1625;49.884;8.666;2022-08-19T16:48:37;29.30;77.30
3226;DHT22;1625;49.884;8.666;2022-08-19T16:51:08;29.30;76.80
3226;DHT22;1625;49.884;8.666;2022-08-19T16:53:36;29.30;77.90
3226;DHT22;1625;49.884;8.666;2022-08-19T16:56:02;29.30;76.00
3226;DHT22;1625;49.884;8.666;2022-08-19T16:58:29;29.10;76.20
3226;DHT22;1625;49.884;8.666;2022-08-19T17:00:59;29.00;76.80
3226;DHT22;1625;49.884;8.666;2022-08-19T17:03:25;29.20;77.80
3226;DHT22;1625;49.884;8.666;2022-08-19T17:05:56;29.20;77.90
3226;DHT22;1625;49.884;8.666;2022-08-19T17:08:24;29.30;78.70
3226;DHT22;1625;49.884;8.666;2022-08-19T17:10:52;29.30;78.10
3226;DHT22;1625;49.884;8.666;2022-08-19T17:13:20;29.90;78.50
3226;DHT22;1625;49.884;8.666;2022-08-19T17:15:46;29.20;78.80
3226;DHT22;1625;49.884;8.666;2022-08-19T17:18:13;29.10;78.30
3226;DHT22;1625;49.884;8.666;2022-08-19T17:20:40;29.30;79.30
3226;DHT22;1625;49.884;8.666;2022-08-19T17:23:06;29.60;79.00
3226;DHT22;1625;49.884;8.666;2022-08-19T17:25:33;29.50;78.60